sensor_id;sensor_type;location;lat;lon;timestamp;P1;durP1;ratioP1;P2;durP2;ratioP2
8714;SDS011;4394;51.208;8.904;2024-02-26T00:02:09;2.80;;;2.57;;
8714;SDS011;4394;51.208;8.904;2024-02-26T00:04:59;3.90;;;3.07;;
8714;SDS011;4394;51.208;8.904;2024-02-26T00:07:47;5.23;;;3.47;;
8714;SDS011;4394;51.208;8.904;2024-02-26T00:10:36;3.53;;;3.00;;
8714;SDS011;4394;51.208;8.904;2024-02-26T00:13:24;4.90;;;3.37;;
8714;SDS011;4394;51.208;8.904;2024-02-26T00:16:12;4.77;;;3.60;;
8714;SDS011;4394;51.208;8.904;2024-02-26T00:19:00;4.07;;;3.27;;
8714;SDS011;4394;51.208;8.904;2024-02-26T00:21:50;5.17;;;3.80;;
8714;SDS011;4394;51.208;8.904;2024-02-26T00:24:40;4.70;;;3.33;;
8714;SDS011;4394;51.208;8.904;2024-02-26T00:27:28;5.33;;;4.10;;
8714;SDS011;4394;51.208;8.904;2024-02-26T00:30:16;4.63;;;3.83;;
8714;SDS011;4394;51.208;8.904;2024-02-26T00:33:05;4.77;;;3.70;;
8714;SDS011;4394;51.208;8.904;2024-02-26T00:35:53;4.53;;;4.10;;
8714;SDS011;4394;51.208;8.904;2024-02-26T00:38:43;5.63;;;4.20;;
8714;SDS011;4394;51.208;8.904;2024-02-26T00:41:32;6.23;;;3.73;;
8714;SDS011;4394;51.208;8.904;2024-02-26T00:44:20;5.67;;;3.93;;
8714;SDS011;4394;51.208;8.904;2024-02-26T00:47:08;4.97;;;4.10;;
8714;SDS011;4394;51.208;8.904;2024-02-26T00:49:57;7.07;;;4.30;;
8714;SDS011;4394;51.208;8.904;2024-02-26T00:52:45;4.20;;;3.80;;
8714;SDS011;4394;51.208;8.904;2024-02-26T00:55:35;4.20;;;3.80;;
8714;SDS011;4394;51.208;8.904;2024-02-26T00:58:23;5.37;;;3.93;;
8714;SDS011;4394;51.208;8.904;2024-02-26T01:01:11;6.47;;;4.10;;
8714;SDS011;4394;51.208;8.904;2024-02-26T01:03:59;6.53;;;4.00;;
8714;SDS011;4394;51.208;8.904;2024-02-26T01:06:48;5.20;;;4.20;;
8714;SDS011;4394;51.208;8.904;2024-02-26T01:09:36;4.60;;;4.20;;
8714;SDS011;4394;51.208;8.904;2024-02-26T01:12:26;4.77;;;4.20;;
8714;SDS011;4394;51.208;8.904;2024-02-26T01:15:14;5.03;;;4.30;;
8714;SDS011;4394;51.208;8.904;2024-02-26T01:18:03;5.83;;;4.17;;
8714;SDS011;4394;51.208;8.904;2024-02-26T01:20:51;5.07;;;4.57;;
8714;SDS011;4394;51.208;8.904;2024-02-26T01:23:41;6.10;;;4.80;;
8714;SDS011;4394;51.208;8.904;2024-02-26T01:26:29;8.00;;;4.90;;
8714;SDS011;4394;51.208;8.904;2024-02-26T01:29:18;5.10;;;4.37;;
8714;SDS011;4394;51.208;8.904;2024-02-26T01:32:06;5.83;;;4.97;;
8714;SDS011;4394;51.208;8.904;2024-02-26T01:34:55;4.30;;;3.90;;
8714;SDS011;4394;51.208;8.904;2024-02-26T01:37:43;5.60;;;4.47;;
8714;SDS011;4394;51.208;8.904;2024-02-26T01:40:31;4.40;;;3.93;;
8714;SDS011;4394;51.208;8.904;2024-02-26T01:43:19;5.30;;;4.17;;
8714;SDS011;4394;51.208;8.904;2024-02-26T01:46:09;5.63;;;4.47;;
8714;SDS011;4394;51.208;8.904;2024-02-26T01:49:01;4.33;;;3.87;;
8714;SDS011;4394;51.208;8.904;2024-02-26T01:51:50;6.57;;;4.67;;
8714;SDS011;4394;51.208;8.904;2024-02-26T01:54:38;5.07;;;4.30;;
8714;SDS011;4394;51.208;8.904;2024-02-26T01:57:27;5.87;;;4.57;;
8714;SDS011;4394;51.208;8.904;2024-02-26T02:00:17;4.50;;;4.10;;
8714;SDS011;4394;51.208;8.904;2024-02-26T02:03:09;6.23;;;4.50;;
8714;SDS011;4394;51.208;8.904;2024-02-26T02:05:57;5.63;;;4.30;;
8714;SDS011;4394;51.208;8.904;2024-02-26T02:08:45;5.87;;;3.83;;
8714;SDS011;4394;51.208;8.904;2024-02-26T02:11:34;5.13;;;4.20;;
8714;SDS011;4394;51.208;8.904;2024-02-26T02:14:22;4.47;;;4.03;;
8714;SDS011;4394;51.208;8.904;2024-02-26T02:17:11;4.43;;;3.90;;
8714;SDS011;4394;51.208;8.904;2024-02-26T02:20:00;4.10;;;3.70;;
8714;SDS011;4394;51.208;8.904;2024-02-26T02:22:51;5.17;;;4.10;;
8714;SDS011;4394;51.208;8.904;2024-02-26T02:25:39;3.90;;;3.50;;
8714;SDS011;4394;51.208;8.904;2024-02-26T02:28:27;4.20;;;3.60;;
8714;SDS011;4394;51.208;8.904;2024-02-26T02:31:15;4.93;;;4.00;;
8714;SDS011;4394;51.208;8.904;2024-02-26T02:34:04;3.90;;;3.50;;
8714;SDS011;4394;51.208;8.904;2024-02-26T02:36:52;5.53;;;3.87;;
8714;SDS011;4394;51.208;8.904;2024-02-26T02:39:42;4.37;;;3.97;;
8714;SDS011;4394;51.208;8.904;2024-02-26T02:42:31;5.73;;;4.27;;
8714;SDS011;4394;51.208;8.904;2024-02-26T02:45:19;4.77;;;4.23;;
8714;SDS011;4394;51.208;8.904;2024-02-26T02:48:07;8.07;;;5.17;;
8714;SDS011;4394;51.208;8.904;2024-02-26T02:50:56;6.53;;;4.53;;
8714;SDS011;4394;51.208;8.904;2024-02-26T02:53:44;7.17;;;4.93;;
8714;SDS011;4394;51.208;8.904;2024-02-26T02:56:34;5.20;;;4.53;;
8714;SDS011;4394;51.208;8.904;2024-02-26T02:59:22;5.40;;;4.37;;
8714;SDS011;4394;51.208;8.904;2024-02-26T03:02:10;6.90;;;4.57;;
8714;SDS011;4394;51.208;8.904;2024-02-26T03:04:58;5.70;;;4.27;;
8714;SDS011;4394;51.208;8.904;2024-02-26T03:07:46;5.40;;;4.00;;
8714;SDS011;4394;51.208;8.904;2024-02-26T03:10:34;7.33;;;4.30;;
8714;SDS011;4394;51.208;8.904;2024-02-26T03:13:24;6.43;;;4.50;;
8714;SDS011;4394;51.208;8.904;2024-02-26T03:16:13;5.13;;;4.07;;
8714;SDS011;4394;51.208;8.904;2024-02-26T03:19:01;6.10;;;4.60;;
8714;SDS011;4394;51.208;8.904;2024-02-26T03:21:49;5.20;;;4.03;;
8714;SDS011;4394;51.208;8.904;2024-02-26T03:24:37;6.13;;;3.97;;
8714;SDS011;4394;51.208;8.904;2024-02-26T03:27:26;4.30;;;3.77;;
8714;SDS011;4394;51.208;8.904;2024-02-26T03:30:15;5.50;;;4.00;;
8714;SDS011;4394;51.208;8.904;2024-02-26T03:33:03;4.40;;;3.77;;
8714;SDS011;4394;51.208;8.904;2024-02-26T03:35:52;4.20;;;3.77;;
8714;SDS011;4394;51.208;8.904;2024-02-26T03:38:40;4.43;;;3.50;;
8714;SDS011;4394;51.208;8.904;2024-02-26T03:41:28;4.50;;;3.80;;
8714;SDS011;4394;51.208;8.904;2024-02-26T03:44:18;5.07;;;3.70;;
8714;SDS011;4394;51.208;8.904;2024-02-26T03:47:07;3.97;;;3.37;;
8714;SDS011;4394;51.208;8.904;2024-02-26T03:49:55;7.03;;;4.50;;
8714;SDS011;4394;51.208;8.904;2024-02-26T03:52:45;4.40;;;3.57;;
8714;SDS011;4394;51.208;8.904;2024-02-26T03:55:33;5.30;;;3.67;;
8714;SDS011;4394;51.208;8.904;2024-02-26T03:58:21;6.37;;;5.17;;
8714;SDS011;4394;51.208;8.904;2024-02-26T04:01:09;5.37;;;4.73;;
8714;SDS011;4394;51.208;8.904;2024-02-26T04:03:59;3.93;;;3.53;;
8714;SDS011;4394;51.208;8.904;2024-02-26T04:06:47;5.30;;;3.10;;
8714;SDS011;4394;51.208;8.904;2024-02-26T04:09:35;3.40;;;3.10;;
8714;SDS011;4394;51.208;8.904;2024-02-26T04:12:24;5.63;;;3.00;;
8714;SDS011;4394;51.208;8.904;2024-02-26T04:15:12;4.60;;;3.23;;
8714;SDS011;4394;51.208;8.904;2024-02-26T04:18:00;4.97;;;3.90;;
8714;SDS011;4394;51.208;8.904;2024-02-26T04:20:51;5.10;;;4.60;;
8714;SDS011;4394;51.208;8.904;2024-02-26T04:23:39;4.90;;;4.37;;
8714;SDS011;4394;51.208;8.904;2024-02-26T04:26:27;4.23;;;3.83;;
8714;SDS011;4394;51.208;8.904;2024-02-26T04:29:16;4.40;;;3.63;;
8714;SDS011;4394;51.208;8.904;2024-02-26T04:32:04;3.87;;;2.90;;
8714;SDS011;4394;51.208;8.904;2024-02-26T04:34:53;3.53;;;2.73;;
8714;SDS011;4394;51.208;8.904;2024-02-26T04:37:43;2.60;;;2.30;;
8714;SDS011;4394;51.208;8.904;2024-02-26T04:40:31;3.67;;;2.57;;
8714;SDS011;4394;51.208;8.904;2024-02-26T04:43:19;3.17;;;2.47;;
8714;SDS011;4394;51.208;8.904;2024-02-26T04:46:07;3.23;;;2.50;;
8714;SDS011;4394;51.208;8.904;2024-02-26T04:48:55;3.00;;;2.20;;
8714;SDS011;4394;51.208;8.904;2024-02-26T04:51:44;3.50;;;2.43;;
8714;SDS011;4394;51.208;8.904;2024-02-26T04:54:35;4.03;;;2.80;;
8714;SDS011;4394;51.208;8.904;2024-02-26T04:57:23;3.93;;;2.80;;
8714;SDS011;4394;51.208;8.904;2024-02-26T05:00:13;3.20;;;2.53;;
8714;SDS011;4394;51.208;8.904;2024-02-26T05:03:01;2.87;;;2.30;;
8714;SDS011;4394;51.208;8.904;2024-02-26T05:05:50;2.87;;;2.50;;
8714;SDS011;4394;51.208;8.904;2024-02-26T05:08:38;3.30;;;2.43;;
8714;SDS011;4394;51.208;8.904;2024-02-26T05:11:28;3.03;;;2.47;;
8714;SDS011;4394;51.208;8.904;2024-02-26T05:14:16;3.33;;;2.47;;
8714;SDS011;4394;51.208;8.904;2024-02-26T05:17:04;3.80;;;2.67;;
8714;SDS011;4394;51.208;8.904;2024-02-26T05:19:52;3.63;;;2.97;;
8714;SDS011;4394;51.208;8.904;2024-02-26T05:22:40;2.87;;;2.57;;
8714;SDS011;4394;51.208;8.904;2024-02-26T05:25:29;4.80;;;2.60;;
8714;SDS011;4394;51.208;8.904;2024-02-26T05:28:18;4.17;;;2.57;;
8714;SDS011;4394;51.208;8.904;2024-02-26T05:31:07;3.90;;;2.70;;
8714;SDS011;4394;51.208;8.904;2024-02-26T05:33:55;3.10;;;2.50;;
8714;SDS011;4394;51.208;8.904;2024-02-26T05:36:44;4.17;;;2.77;;
8714;SDS011;4394;51.208;8.904;2024-02-26T05:39:32;2.77;;;2.30;;
8714;SDS011;4394;51.208;8.904;2024-02-26T05:42:20;2.60;;;2.30;;
8714;SDS011;4394;51.208;8.904;2024-02-26T05:45:10;4.70;;;2.60;;
8714;SDS011;4394;51.208;8.904;2024-02-26T05:47:59;4.10;;;2.33;;
8714;SDS011;4394;51.208;8.904;2024-02-26T05:50:47;3.77;;;2.90;;
8714;SDS011;4394;51.208;8.904;2024-02-26T05:53:35;2.70;;;2.20;;
8714;SDS011;4394;51.208;8.904;2024-02-26T05:56:23;3.87;;;2.60;;
8714;SDS011;4394;51.208;8.904;2024-02-26T05:59:12;5.03;;;2.60;;
8714;SDS011;4394;51.208;8.904;2024-02-26T06:02:03;3.93;;;3.17;;
8714;SDS011;4394;51.208;8.904;2024-02-26T06:04:52;3.20;;;2.70;;
8714;SDS011;4394;51.208;8.904;2024-02-26T06:07:40;4.20;;;2.90;;
8714;SDS011;4394;51.208;8.904;2024-02-26T06:10:28;3.70;;;2.50;;
8714;SDS011;4394;51.208;8.904;2024-02-26T06:13:16;3.37;;;2.50;;
8714;SDS011;4394;51.208;8.904;2024-02-26T06:16:04;3.70;;;2.80;;
8714;SDS011;4394;51.208;8.904;2024-02-26T06:18:54;3.00;;;2.60;;
8714;SDS011;4394;51.208;8.904;2024-02-26T06:21:43;3.10;;;2.80;;
8714;SDS011;4394;51.208;8.904;2024-02-26T06:24:31;2.90;;;2.50;;
8714;SDS011;4394;51.208;8.904;2024-02-26T06:27:19;3.37;;;2.80;;
8714;SDS011;4394;51.208;8.904;2024-02-26T06:30:08;4.27;;;2.70;;
8714;SDS011;4394;51.208;8.904;2024-02-26T06:32:58;4.63;;;3.00;;
8714;SDS011;4394;51.208;8.904;2024-02-26T06:35:47;3.63;;;2.63;;
8714;SDS011;4394;51.208;8.904;2024-02-26T06:38:36;4.73;;;2.93;;
8714;SDS011;4394;51.208;8.904;2024-02-26T06:41:24;3.80;;;2.90;;
8714;SDS011;4394;51.208;8.904;2024-02-26T06:44:14;2.63;;;2.40;;
8714;SDS011;4394;51.208;8.904;2024-02-26T06:47:02;3.60;;;2.50;;
8714;SDS011;4394;51.208;8.904;2024-02-26T06:49:50;3.83;;;2.67;;
8714;SDS011;4394;51.208;8.904;2024-02-26T06:52:39;3.10;;;2.57;;
8714;SDS011;4394;51.208;8.904;2024-02-26T06:55:28;3.10;;;2.27;;
8714;SDS011;4394;51.208;8.904;2024-02-26T06:58:16;4.30;;;2.60;;
8714;SDS011;4394;51.208;8.904;2024-02-26T07:01:04;4.93;;;2.80;;
8714;SDS011;4394;51.208;8.904;2024-02-26T07:03:54;2.80;;;2.50;;
8714;SDS011;4394;51.208;8.904;2024-02-26T07:06:42;4.03;;;2.53;;
8714;SDS011;4394;51.208;8.904;2024-02-26T07:09:34;3.20;;;2.60;;
8714;SDS011;4394;51.208;8.904;2024-02-26T07:12:22;3.43;;;2.20;;
8714;SDS011;4394;51.208;8.904;2024-02-26T07:15:10;3.97;;;2.40;;
8714;SDS011;4394;51.208;8.904;2024-02-26T07:17:59;3.07;;;2.27;;
8714;SDS011;4394;51.208;8.904;2024-02-26T07:20:50;3.43;;;2.50;;
8714;SDS011;4394;51.208;8.904;2024-02-26T07:23:38;3.97;;;2.67;;
8714;SDS011;4394;51.208;8.904;2024-02-26T07:26:28;2.97;;;2.47;;
8714;SDS011;4394;51.208;8.904;2024-02-26T07:29:17;2.50;;;2.30;;
8714;SDS011;4394;51.208;8.904;2024-02-26T07:32:05;3.27;;;2.37;;
8714;SDS011;4394;51.208;8.904;2024-02-26T07:34:53;2.63;;;2.30;;
8714;SDS011;4394;51.208;8.904;2024-02-26T07:37:42;2.37;;;2.13;;
8714;SDS011;4394;51.208;8.904;2024-02-26T07:40:30;3.50;;;2.73;;
8714;SDS011;4394;51.208;8.904;2024-02-26T07:43:19;4.20;;;2.47;;
8714;SDS011;4394;51.208;8.904;2024-02-26T07:46:08;3.23;;;2.23;;
8714;SDS011;4394;51.208;8.904;2024-02-26T07:48:59;2.80;;;2.50;;
8714;SDS011;4394;51.208;8.904;2024-02-26T07:51:47;2.70;;;2.40;;
8714;SDS011;4394;51.208;8.904;2024-02-26T07:54:35;3.00;;;2.50;;
8714;SDS011;4394;51.208;8.904;2024-02-26T07:57:23;2.20;;;2.00;;
8714;SDS011;4394;51.208;8.904;2024-02-26T08:00:13;3.33;;;2.40;;
8714;SDS011;4394;51.208;8.904;2024-02-26T08:03:04;3.93;;;2.83;;
8714;SDS011;4394;51.208;8.904;2024-02-26T08:05:52;4.43;;;2.80;;
8714;SDS011;4394;51.208;8.904;2024-02-26T08:08:41;3.43;;;2.97;;
8714;SDS011;4394;51.208;8.904;2024-02-26T08:11:30;4.30;;;2.60;;
8714;SDS011;4394;51.208;8.904;2024-02-26T08:14:18;3.20;;;2.50;;
8714;SDS011;4394;51.208;8.904;2024-02-26T08:17:07;3.90;;;2.70;;
8714;SDS011;4394;51.208;8.904;2024-02-26T08:19:55;4.13;;;2.67;;
8714;SDS011;4394;51.208;8.904;2024-02-26T08:22:44;4.53;;;3.07;;
8714;SDS011;4394;51.208;8.904;2024-02-26T08:25:32;4.17;;;3.20;;
8714;SDS011;4394;51.208;8.904;2024-02-26T08:28:20;3.00;;;2.70;;
8714;SDS011;4394;51.208;8.904;2024-02-26T08:31:08;4.97;;;3.70;;
8714;SDS011;4394;51.208;8.904;2024-02-26T08:33:57;5.30;;;3.53;;
8714;SDS011;4394;51.208;8.904;2024-02-26T08:36:47;4.90;;;3.67;;
8714;SDS011;4394;51.208;8.904;2024-02-26T08:39:35;5.97;;;3.97;;
8714;SDS011;4394;51.208;8.904;2024-02-26T08:42:23;5.00;;;3.37;;
8714;SDS011;4394;51.208;8.904;2024-02-26T08:45:11;6.10;;;3.50;;
8714;SDS011;4394;51.208;8.904;2024-02-26T08:48:00;6.07;;;4.00;;
8714;SDS011;4394;51.208;8.904;2024-02-26T08:50:49;4.07;;;3.50;;
8714;SDS011;4394;51.208;8.904;2024-02-26T08:53:37;5.43;;;3.50;;
8714;SDS011;4394;51.208;8.904;2024-02-26T08:56:29;5.60;;;3.50;;
8714;SDS011;4394;51.208;8.904;2024-02-26T08:59:17;5.33;;;3.37;;
8714;SDS011;4394;51.208;8.904;2024-02-26T09:02:09;4.73;;;3.23;;
8714;SDS011;4394;51.208;8.904;2024-02-26T09:04:57;4.13;;;3.33;;
8714;SDS011;4394;51.208;8.904;2024-02-26T09:07:46;4.17;;;3.30;;
8714;SDS011;4394;51.208;8.904;2024-02-26T09:10:34;3.93;;;3.40;;
8714;SDS011;4394;51.208;8.904;2024-02-26T09:13:22;5.70;;;3.60;;
8714;SDS011;4394;51.208;8.904;2024-02-26T09:16:11;5.23;;;3.80;;
8714;SDS011;4394;51.208;8.904;2024-02-26T09:19:00;4.17;;;3.17;;
8714;SDS011;4394;51.208;8.904;2024-02-26T09:21:49;5.23;;;3.77;;
8714;SDS011;4394;51.208;8.904;2024-02-26T09:24:39;4.93;;;3.83;;
8714;SDS011;4394;51.208;8.904;2024-02-26T09:27:27;6.80;;;4.33;;
8714;SDS011;4394;51.208;8.904;2024-02-26T09:30:17;5.93;;;4.43;;
8714;SDS011;4394;51.208;8.904;2024-02-26T09:33:05;8.07;;;4.57;;
8714;SDS011;4394;51.208;8.904;2024-02-26T09:35:53;7.53;;;4.57;;
8714;SDS011;4394;51.208;8.904;2024-02-26T09:38:42;6.17;;;4.30;;
8714;SDS011;4394;51.208;8.904;2024-02-26T09:41:46;7.73;;;4.60;;
8714;SDS011;4394;51.208;8.904;2024-02-26T09:44:35;6.07;;;4.37;;
8714;SDS011;4394;51.208;8.904;2024-02-26T09:47:24;7.83;;;5.40;;
8714;SDS011;4394;51.208;8.904;2024-02-26T09:50:16;7.30;;;5.33;;
8714;SDS011;4394;51.208;8.904;2024-02-26T09:53:09;8.07;;;5.10;;
8714;SDS011;4394;51.208;8.904;2024-02-26T09:56:01;8.57;;;5.60;;
8714;SDS011;4394;51.208;8.904;2024-02-26T09:58:50;9.27;;;5.60;;
8714;SDS011;4394;51.208;8.904;2024-02-26T10:01:41;9.10;;;5.63;;
8714;SDS011;4394;51.208;8.904;2024-02-26T10:04:31;9.00;;;5.23;;
8714;SDS011;4394;51.208;8.904;2024-02-26T10:07:20;8.80;;;5.70;;
8714;SDS011;4394;51.208;8.904;2024-02-26T10:10:08;8.37;;;5.80;;
8714;SDS011;4394;51.208;8.904;2024-02-26T10:12:57;8.23;;;5.67;;
8714;SDS011;4394;51.208;8.904;2024-02-26T10:15:48;10.53;;;6.60;;
8714;SDS011;4394;51.208;8.904;2024-02-26T10:18:46;9.70;;;6.27;;
8714;SDS011;4394;51.208;8.904;2024-02-26T10:21:37;8.70;;;6.03;;
8714;SDS011;4394;51.208;8.904;2024-02-26T10:24:26;7.87;;;5.73;;
8714;SDS011;4394;51.208;8.904;2024-02-26T10:27:14;8.17;;;5.57;;
8714;SDS011;4394;51.208;8.904;2024-02-26T10:30:03;8.90;;;6.17;;
8714;SDS011;4394;51.208;8.904;2024-02-26T10:32:53;9.83;;;5.90;;
8714;SDS011;4394;51.208;8.904;2024-02-26T10:35:45;10.40;;;7.27;;
8714;SDS011;4394;51.208;8.904;2024-02-26T10:38:34;9.37;;;6.30;;
8714;SDS011;4394;51.208;8.904;2024-02-26T10:41:22;10.80;;;7.10;;
8714;SDS011;4394;51.208;8.904;2024-02-26T10:44:11;10.97;;;7.10;;
8714;SDS011;4394;51.208;8.904;2024-02-26T10:47:04;9.57;;;6.60;;
8714;SDS011;4394;51.208;8.904;2024-02-26T10:49:56;11.70;;;6.60;;
8714;SDS011;4394;51.208;8.904;2024-02-26T10:52:45;9.67;;;6.50;;
8714;SDS011;4394;51.208;8.904;2024-02-26T10:55:34;9.80;;;6.90;;
8714;SDS011;4394;51.208;8.904;2024-02-26T10:58:24;10.67;;;6.57;;
8714;SDS011;4394;51.208;8.904;2024-02-26T11:01:13;11.83;;;7.20;;
8714;SDS011;4394;51.208;8.904;2024-02-26T11:04:02;10.40;;;6.90;;
8714;SDS011;4394;51.208;8.904;2024-02-26T11:06:52;11.73;;;7.43;;
8714;SDS011;4394;51.208;8.904;2024-02-26T11:09:44;11.03;;;7.13;;
8714;SDS011;4394;51.208;8.904;2024-02-26T11:12:38;10.07;;;7.03;;
8714;SDS011;4394;51.208;8.904;2024-02-26T11:15:27;9.73;;;6.53;;
8714;SDS011;4394;51.208;8.904;2024-02-26T11:18:18;10.67;;;6.80;;
8714;SDS011;4394;51.208;8.904;2024-02-26T11:21:08;9.87;;;7.20;;
8714;SDS011;4394;51.208;8.904;2024-02-26T11:23:59;10.07;;;6.97;;
8714;SDS011;4394;51.208;8.904;2024-02-26T11:26:50;11.43;;;7.73;;
8714;SDS011;4394;51.208;8.904;2024-02-26T11:29:47;10.50;;;7.73;;
8714;SDS011;4394;51.208;8.904;2024-02-26T11:32:38;12.60;;;7.67;;
8714;SDS011;4394;51.208;8.904;2024-02-26T11:35:27;11.67;;;8.17;;
8714;SDS011;4394;51.208;8.904;2024-02-26T11:38:20;10.30;;;7.47;;
8714;SDS011;4394;51.208;8.904;2024-02-26T11:41:10;11.37;;;7.43;;
8714;SDS011;4394;51.208;8.904;2024-02-26T11:43:58;11.57;;;8.10;;
8714;SDS011;4394;51.208;8.904;2024-02-26T11:46:48;12.13;;;7.90;;
8714;SDS011;4394;51.208;8.904;2024-02-26T11:49:36;12.23;;;7.80;;
8714;SDS011;4394;51.208;8.904;2024-02-26T11:52:24;10.73;;;7.30;;
8714;SDS011;4394;51.208;8.904;2024-02-26T11:55:12;10.57;;;7.60;;
8714;SDS011;4394;51.208;8.904;2024-02-26T11:58:20;10.00;;;7.60;;
8714;SDS011;4394;51.208;8.904;2024-02-26T12:04:29;11.53;;;7.67;;
8714;SDS011;4394;51.208;8.904;2024-02-26T12:07:18;10.30;;;7.30;;
8714;SDS011;4394;51.208;8.904;2024-02-26T12:10:13;12.23;;;8.50;;
8714;SDS011;4394;51.208;8.904;2024-02-26T12:13:04;13.17;;;8.47;;
8714;SDS011;4394;51.208;8.904;2024-02-26T12:15:56;12.00;;;7.97;;
8714;SDS011;4394;51.208;8.904;2024-02-26T12:18:46;11.77;;;8.13;;
8714;SDS011;4394;51.208;8.904;2024-02-26T12:21:35;14.63;;;9.23;;
8714;SDS011;4394;51.208;8.904;2024-02-26T12:24:24;16.83;;;10.37;;
8714;SDS011;4394;51.208;8.904;2024-02-26T12:27:12;14.60;;;9.60;;
8714;SDS011;4394;51.208;8.904;2024-02-26T12:30:02;19.77;;;11.37;;
8714;SDS011;4394;51.208;8.904;2024-02-26T12:32:52;17.13;;;11.37;;
8714;SDS011;4394;51.208;8.904;2024-02-26T12:35:43;13.33;;;9.30;;
8714;SDS011;4394;51.208;8.904;2024-02-26T12:38:34;11.17;;;8.30;;
8714;SDS011;4394;51.208;8.904;2024-02-26T12:41:23;13.57;;;8.07;;
8714;SDS011;4394;51.208;8.904;2024-02-26T12:44:12;11.70;;;8.03;;
8714;SDS011;4394;51.208;8.904;2024-02-26T12:47:00;10.83;;;7.80;;
8714;SDS011;4394;51.208;8.904;2024-02-26T12:49:50;13.67;;;8.30;;
8714;SDS011;4394;51.208;8.904;2024-02-26T12:52:39;13.23;;;8.63;;
8714;SDS011;4394;51.208;8.904;2024-02-26T12:55:28;11.60;;;8.40;;
8714;SDS011;4394;51.208;8.904;2024-02-26T12:58:20;14.67;;;9.50;;
8714;SDS011;4394;51.208;8.904;2024-02-26T13:01:13;12.50;;;8.37;;
8714;SDS011;4394;51.208;8.904;2024-02-26T13:04:02;13.50;;;9.17;;
8714;SDS011;4394;51.208;8.904;2024-02-26T13:06:54;12.50;;;8.30;;
8714;SDS011;4394;51.208;8.904;2024-02-26T13:09:47;10.40;;;7.93;;
8714;SDS011;4394;51.208;8.904;2024-02-26T13:12:35;13.13;;;7.77;;
8714;SDS011;4394;51.208;8.904;2024-02-26T13:15:23;9.53;;;6.67;;
8714;SDS011;4394;51.208;8.904;2024-02-26T13:18:12;11.40;;;8.23;;
8714;SDS011;4394;51.208;8.904;2024-02-26T13:21:07;11.17;;;7.57;;
8714;SDS011;4394;51.208;8.904;2024-02-26T13:23:57;12.17;;;8.37;;
8714;SDS011;4394;51.208;8.904;2024-02-26T13:26:46;11.37;;;7.73;;
8714;SDS011;4394;51.208;8.904;2024-02-26T13:29:34;12.40;;;7.93;;
8714;SDS011;4394;51.208;8.904;2024-02-26T13:32:22;13.50;;;8.63;;
8714;SDS011;4394;51.208;8.904;2024-02-26T13:35:10;12.27;;;7.43;;
8714;SDS011;4394;51.208;8.904;2024-02-26T13:37:59;11.07;;;8.10;;
8714;SDS011;4394;51.208;8.904;2024-02-26T13:40:50;10.87;;;7.57;;
8714;SDS011;4394;51.208;8.904;2024-02-26T13:43:39;10.20;;;7.83;;
8714;SDS011;4394;51.208;8.904;2024-02-26T13:46:27;10.57;;;7.90;;
8714;SDS011;4394;51.208;8.904;2024-02-26T13:49:15;11.53;;;8.07;;
8714;SDS011;4394;51.208;8.904;2024-02-26T13:52:03;12.30;;;8.23;;
8714;SDS011;4394;51.208;8.904;2024-02-26T13:54:52;11.77;;;8.47;;
8714;SDS011;4394;51.208;8.904;2024-02-26T13:57:41;10.33;;;7.50;;
8714;SDS011;4394;51.208;8.904;2024-02-26T14:00:29;11.63;;;7.73;;
8714;SDS011;4394;51.208;8.904;2024-02-26T14:03:20;14.30;;;9.00;;
8714;SDS011;4394;51.208;8.904;2024-02-26T14:06:08;13.50;;;9.20;;
8714;SDS011;4394;51.208;8.904;2024-02-26T14:08:57;12.63;;;8.80;;
8714;SDS011;4394;51.208;8.904;2024-02-26T14:11:45;13.73;;;8.90;;
8714;SDS011;4394;51.208;8.904;2024-02-26T14:14:34;18.03;;;10.60;;
8714;SDS011;4394;51.208;8.904;2024-02-26T14:17:25;11.90;;;8.10;;
8714;SDS011;4394;51.208;8.904;2024-02-26T14:20:13;12.43;;;7.60;;
8714;SDS011;4394;51.208;8.904;2024-02-26T14:23:01;12.70;;;8.30;;
8714;SDS011;4394;51.208;8.904;2024-02-26T14:25:49;14.27;;;9.33;;
8714;SDS011;4394;51.208;8.904;2024-02-26T14:28:37;11.77;;;9.27;;
8714;SDS011;4394;51.208;8.904;2024-02-26T14:31:26;11.47;;;7.70;;
8714;SDS011;4394;51.208;8.904;2024-02-26T14:34:14;11.50;;;8.00;;
8714;SDS011;4394;51.208;8.904;2024-02-26T14:37:05;10.73;;;7.63;;
8714;SDS011;4394;51.208;8.904;2024-02-26T14:39:53;10.33;;;7.73;;
8714;SDS011;4394;51.208;8.904;2024-02-26T14:42:41;11.27;;;7.40;;
8714;SDS011;4394;51.208;8.904;2024-02-26T14:45:29;9.53;;;7.17;;
8714;SDS011;4394;51.208;8.904;2024-02-26T14:48:20;9.43;;;7.43;;
8714;SDS011;4394;51.208;8.904;2024-02-26T14:51:08;11.57;;;7.77;;
8714;SDS011;4394;51.208;8.904;2024-02-26T14:53:56;10.27;;;7.20;;
8714;SDS011;4394;51.208;8.904;2024-02-26T14:56:45;9.77;;;6.93;;
8714;SDS011;4394;51.208;8.904;2024-02-26T14:59:34;11.03;;;7.27;;
8714;SDS011;4394;51.208;8.904;2024-02-26T15:02:23;10.70;;;7.73;;
8714;SDS011;4394;51.208;8.904;2024-02-26T15:05:13;11.03;;;7.20;;
8714;SDS011;4394;51.208;8.904;2024-02-26T15:08:02;10.37;;;7.53;;
8714;SDS011;4394;51.208;8.904;2024-02-26T15:10:51;10.73;;;7.97;;
8714;SDS011;4394;51.208;8.904;2024-02-26T15:13:39;12.33;;;7.73;;
8714;SDS011;4394;51.208;8.904;2024-02-26T15:16:27;11.37;;;7.70;;
8714;SDS011;4394;51.208;8.904;2024-02-26T15:19:15;9.93;;;7.87;;
8714;SDS011;4394;51.208;8.904;2024-02-26T15:22:05;11.30;;;8.00;;
8714;SDS011;4394;51.208;8.904;2024-02-26T15:24:54;12.03;;;7.83;;
8714;SDS011;4394;51.208;8.904;2024-02-26T15:27:42;13.27;;;7.63;;
8714;SDS011;4394;51.208;8.904;2024-02-26T15:30:30;11.87;;;8.17;;
8714;SDS011;4394;51.208;8.904;2024-02-26T15:33:19;11.30;;;7.93;;
8714;SDS011;4394;51.208;8.904;2024-02-26T15:36:07;10.03;;;7.57;;
8714;SDS011;4394;51.208;8.904;2024-02-26T15:38:58;9.77;;;7.20;;
8714;SDS011;4394;51.208;8.904;2024-02-26T15:41:46;10.23;;;7.23;;
8714;SDS011;4394;51.208;8.904;2024-02-26T15:44:34;10.63;;;7.10;;
8714;SDS011;4394;51.208;8.904;2024-02-26T15:47:25;10.20;;;7.23;;
8714;SDS011;4394;51.208;8.904;2024-02-26T15:50:13;11.40;;;7.87;;
8714;SDS011;4394;51.208;8.904;2024-02-26T15:53:01;13.07;;;8.27;;
8714;SDS011;4394;51.208;8.904;2024-02-26T15:55:51;11.87;;;9.27;;
8714;SDS011;4394;51.208;8.904;2024-02-26T15:58:39;12.93;;;9.10;;
8714;SDS011;4394;51.208;8.904;2024-02-26T16:01:27;12.80;;;9.00;;
8714;SDS011;4394;51.208;8.904;2024-02-26T16:04:17;11.50;;;8.83;;
8714;SDS011;4394;51.208;8.904;2024-02-26T16:07:06;10.83;;;8.07;;
8714;SDS011;4394;51.208;8.904;2024-02-26T16:10:00;10.50;;;7.30;;
8714;SDS011;4394;51.208;8.904;2024-02-26T16:12:52;11.00;;;8.27;;
8714;SDS011;4394;51.208;8.904;2024-02-26T16:15:42;12.27;;;8.33;;
8714;SDS011;4394;51.208;8.904;2024-02-26T16:18:35;11.47;;;8.60;;
8714;SDS011;4394;51.208;8.904;2024-02-26T16:21:24;12.03;;;7.90;;
8714;SDS011;4394;51.208;8.904;2024-02-26T16:24:12;11.10;;;7.60;;
8714;SDS011;4394;51.208;8.904;2024-02-26T16:27:00;8.87;;;7.63;;
8714;SDS011;4394;51.208;8.904;2024-02-26T16:29:49;9.40;;;7.80;;
8714;SDS011;4394;51.208;8.904;2024-02-26T16:32:38;10.20;;;7.63;;
8714;SDS011;4394;51.208;8.904;2024-02-26T16:35:27;10.00;;;7.47;;
8714;SDS011;4394;51.208;8.904;2024-02-26T16:38:15;10.53;;;7.57;;
8714;SDS011;4394;51.208;8.904;2024-02-26T16:41:03;12.40;;;8.60;;
8714;SDS011;4394;51.208;8.904;2024-02-26T16:43:51;13.07;;;8.67;;
8714;SDS011;4394;51.208;8.904;2024-02-26T16:46:40;13.03;;;8.63;;
8714;SDS011;4394;51.208;8.904;2024-02-26T16:49:28;10.93;;;8.13;;
8714;SDS011;4394;51.208;8.904;2024-02-26T16:52:17;11.77;;;8.03;;
8714;SDS011;4394;51.208;8.904;2024-02-26T16:55:05;12.37;;;8.37;;
8714;SDS011;4394;51.208;8.904;2024-02-26T16:57:55;13.53;;;8.53;;
8714;SDS011;4394;51.208;8.904;2024-02-26T17:00:43;11.40;;;8.47;;
8714;SDS011;4394;51.208;8.904;2024-02-26T17:03:33;11.13;;;8.03;;
8714;SDS011;4394;51.208;8.904;2024-02-26T17:06:22;10.83;;;7.73;;
8714;SDS011;4394;51.208;8.904;2024-02-26T17:09:10;11.23;;;7.33;;
8714;SDS011;4394;51.208;8.904;2024-02-26T17:11:59;11.43;;;7.67;;
8714;SDS011;4394;51.208;8.904;2024-02-26T17:14:47;9.77;;;7.87;;
8714;SDS011;4394;51.208;8.904;2024-02-26T17:17:37;11.67;;;8.17;;
8714;SDS011;4394;51.208;8.904;2024-02-26T17:20:27;12.00;;;8.40;;
8714;SDS011;4394;51.208;8.904;2024-02-26T17:23:15;12.70;;;8.97;;
8714;SDS011;4394;51.208;8.904;2024-02-26T17:26:03;12.77;;;8.57;;
8714;SDS011;4394;51.208;8.904;2024-02-26T17:28:55;12.23;;;8.33;;